Time;durP1;ratioP1;P1;durP2;ratioP2;P2;SDS_P1;SDS_P2;PMS_P1;PMS_P2;Temp;Humidity;BMP_temperature;BMP_pressure;BME280_temperature;BME280_humidity;BME280_pressure;Samples;Min_cycle;Max_cycle;Signal;HPM_P1;HPM_P2
2021/07/12 00:00:18;;;;;;;15.70;14.20;;;;;;;18.71;89.69;98800.38;125196;1090;64291;-80
2021/07/12 00:03:06;;;;;;;16.10;14.50;;;;;;;18.70;89.84;98792.45;125200;1093;64379;-81
2021/07/12 00:05:34;;;;;;;15.30;13.80;;;;;;;18.70;89.81;98795.16;125125;1090;64285;-81
2021/07/12 00:08:02;;;;;;;15.63;14.03;;;;;;;18.68;89.69;98792.60;125140;1091;64325;-80
2021/07/12 00:10:30;;;;;;;15.57;13.97;;;;;;;18.68;89.60;98787.20;125149;1090;64373;-80
2021/07/12 00:12:57;;;;;;;15.07;13.47;;;;;;;18.68;89.71;98789.06;125109;1089;64606;-81
2021/07/12 00:15:26;;;;;;;16.10;13.50;;;;;;;18.68;89.35;98789.91;125094;1093;64287;-80
2021/07/12 00:17:54;;;;;;;14.40;12.97;;;;;;;18.69;89.25;98799.68;125088;1090;64188;-80
2021/07/12 00:20:23;;;;;;;15.73;14.20;;;;;;;18.68;89.21;98800.70;125176;1091;64282;-81
2021/07/12 00:22:52;;;;;;;15.53;13.73;;;;;;;18.67;89.39;98817.05;125211;1090;64265;-81
2021/07/12 00:25:21;;;;;;;14.70;13.20;;;;;;;18.68;89.35;98808.80;125258;1093;64332;-81
2021/07/12 00:27:49;;;;;;;14.55;13.03;;;;;;;18.67;89.36;98827.84;125199;1091;64267;-81
2021/07/12 00:30:19;;;;;;;16.50;13.33;;;;;;;18.60;88.83;98817.69;125195;1091;64283;-82
2021/07/12 00:32:47;;;;;;;;;;;;;;;18.58;89.00;98814.29;125206;1091;64264;-81
2021/07/12 00:35:16;;;;;;;15.00;13.60;;;;;;;18.56;89.56;98808.23;125145;1090;64273;-81
2021/07/12 00:37:44;;;;;;;15.23;13.73;;;;;;;18.52;89.19;98816.79;125165;1093;64290;-81
2021/07/12 00:40:14;;;;;;;15.50;13.97;;;;;;;18.50;89.39;98811.54;125115;1090;64281;-81
2021/07/12 00:42:43;;;;;;;15.73;13.43;;;;;;;18.49;89.42;98809.86;125056;1091;64280;-81
2021/07/12 00:45:18;;;;;;;14.97;13.50;;;;;;;18.48;89.69;98810.00;125168;1093;64217;-81
2021/07/12 00:47:46;;;;;;;15.40;14.00;;;;;;;18.46;89.71;98803.91;125237;1090;64210;-81
2021/07/12 00:50:13;;;;;;;17.93;13.90;;;;;;;18.45;89.35;98799.53;125178;1092;64226;-81
2021/07/12 00:52:41;;;;;;;16.35;14.75;;;;;;;18.44;89.74;98804.08;125193;1093;64763;-81
2021/07/12 00:55:32;;;;;;;16.77;14.63;;;;;;;18.42;89.62;98806.09;125120;1091;64312;-81
2021/07/12 00:58:04;;;;;;;16.87;15.17;;;;;;;18.42;89.51;98811.48;125143;1091;64264;-81
2021/07/12 01:00:32;;;;;;;17.27;15.57;;;;;;;18.40;89.50;98808.96;125162;1091;64268;-81
2021/07/12 01:02:59;;;;;;;20.80;16.93;;;;;;;18.41;89.81;98813.34;125075;1093;64262;-81
2021/07/12 01:05:29;;;;;;;18.80;16.93;;;;;;;18.43;89.63;98815.86;125053;1091;64335;-81
2021/07/12 01:07:56;;;;;;;;;;;;;;;18.43;89.91;98807.77;125196;1091;64281;-81
2021/07/12 01:10:26;;;;;;;19.67;17.47;;;;;;;18.41;90.11;98805.24;125127;1092;64354;-81
2021/07/12 01:13:35;;;;;;;20.15;17.85;;;;;;;18.41;90.22;98789.05;125211;1093;64264;-81
2021/07/12 01:16:24;;;;;;;19.03;17.23;;;;;;;18.37;90.22;98786.82;125149;1093;64216;-81
2021/07/12 01:19:24;;;;;;;20.70;18.57;;;;;;;18.32;90.26;98783.75;125118;1091;64268;-81
2021/07/12 01:22:06;;;;;;;21.23;19.17;;;;;;;18.28;90.54;98791.31;125094;1090;64364;-81
2021/07/12 01:24:50;;;;;;;21.90;19.53;;;;;;;18.23;90.62;98793.64;125124;1090;64330;-81
2021/07/12 01:27:51;;;;;;;22.47;18.87;;;;;;;18.19;90.92;98787.72;125098;1091;64641;-80
2021/07/12 01:30:54;;;;;;;20.83;18.63;;;;;;;18.13;91.38;98784.78;125117;1093;64340;-81
2021/07/12 01:33:35;;;;;;;23.40;20.47;;;;;;;18.10;90.92;98790.50;125130;1093;64264;-81
2021/07/12 01:36:29;;;;;;;20.83;18.37;;;;;;;18.11;91.09;98792.17;125063;1093;64469;-81
2021/07/12 01:39:04;;;;;;;23.07;20.30;;;;;;;18.10;91.10;98790.50;125104;1090;64290;-81
2021/07/12 01:41:37;;;;;;;23.27;19.83;;;;;;;18.08;91.32;98785.24;125106;1093;64283;-81
2021/07/12 01:44:32;;;;;;;23.30;20.93;;;;;;;18.07;91.17;98782.72;125085;1092;64270;-81
2021/07/12 01:47:05;;;;;;;21.80;19.50;;;;;;;18.06;91.13;98789.97;125104;1093;64380;-81
2021/07/12 01:49:48;;;;;;;20.95;18.85;;;;;;;18.05;90.97;98787.41;125076;1092;64377;-81
2021/07/12 01:52:41;;;;;;;20.77;18.53;;;;;;;18.07;91.16;98793.51;125150;1092;64297;-81
2021/07/12 01:55:23;;;;;;;22.37;18.57;;;;;;;18.06;91.05;98797.19;125105;1092;64218;-80
2021/07/12 01:58:01;;;;;;;21.80;18.67;;;;;;;18.05;91.36;98812.53;125059;1093;64223;-80
2021/07/12 02:00:29;;;;;;;19.93;17.93;;;;;;;18.06;90.98;98813.37;125155;1093;64248;-81
2021/07/12 02:02:58;;;;;;;19.77;17.73;;;;;;;18.07;90.97;98806.99;125237;1093;64196;-81
2021/07/12 02:05:30;;;;;;;18.57;16.70;;;;;;;17.99;91.08;98807.77;125193;1093;64364;-81
2021/07/12 02:08:00;;;;;;;21.65;18.85;;;;;;;17.93;90.50;98797.57;125201;1093;64306;-81
2021/07/12 02:10:30;;;;;;;20.90;18.80;;;;;;;17.92;90.80;98801.28;125132;1093;64721;-81
2021/07/12 02:12:59;;;;;;;22.83;18.27;;;;;;;17.97;91.09;98791.73;125121;1093;64354;-82
2021/07/12 02:15:28;;;;;;;20.83;18.57;;;;;;;17.96;91.34;98775.72;125139;1093;64380;-81
2021/07/12 02:17:58;;;;;;;19.63;17.60;;;;;;;17.93;91.17;98774.18;125064;1090;64388;-81
2021/07/12 02:20:27;;;;;;;20.85;18.70;;;;;;;17.91;91.22;98778.03;125158;1090;64268;-81
2021/07/12 02:22:54;;;;;;;18.47;16.63;;;;;;;17.90;91.13;98796.03;125236;1091;64274;-81
2021/07/12 02:25:22;;;;;;;20.67;18.57;;;;;;;17.88;91.17;98805.31;125175;1091;64280;-81
2021/07/12 02:27:50;;;;;;;18.27;16.47;;;;;;;17.83;91.11;98800.37;125216;1091;64284;-81
2021/07/12 02:30:18;;;;;;;18.43;15.73;;;;;;;17.84;91.34;98803.91;125150;1091;64361;-81
2021/07/12 02:32:47;;;;;;;18.15;16.00;;;;;;;17.85;91.07;98792.11;125240;1093;64284;-81
2021/07/12 02:35:15;;;;;;;20.47;17.17;;;;;;;17.92;91.50;98798.59;125150;1092;64281;-81
2021/07/12 02:37:45;;;;;;;22.15;17.55;;;;;;;17.98;91.28;98809.62;125184;1090;64698;-80
2021/07/12 02:40:14;;;;;;;;;;;;;;;18.01;91.49;98810.28;125155;1091;64287;-81
2021/07/12 02:42:45;;;;;;;19.93;15.83;;;;;;;17.95;91.08;98812.59;125162;1091;64290;-81
2021/07/12 02:45:13;;;;;;;17.90;16.00;;;;;;;17.92;91.08;98802.13;125164;1090;64214;-81
2021/07/12 02:47:41;;;;;;;18.43;16.33;;;;;;;17.96;90.94;98803.52;125220;1090;64273;-81
2021/07/12 02:50:10;;;;;;;17.20;15.37;;;;;;;17.98;90.83;98820.41;125167;1090;64159;-81
2021/07/12 02:52:47;;;;;;;17.50;15.70;;;;;;;17.93;90.87;98824.53;125185;1093;64272;-81
2021/07/12 02:55:14;;;;;;;16.53;14.80;;;;;;;17.92;90.85;98841.73;125105;1091;64276;-81
2021/07/12 02:57:42;;;;;;;17.43;15.60;;;;;;;17.94;90.67;98835.18;125200;1090;64191;-81
2021/07/12 03:00:11;;;;;;;18.70;15.77;;;;;;;18.02;91.04;98830.88;125205;1090;64303;-81
2021/07/12 03:02:40;;;;;;;19.70;14.60;;;;;;;18.14;91.26;98825.09;125209;1090;64267;-81
2021/07/12 03:05:09;;;;;;;19.23;14.60;;;;;;;18.28;90.97;98825.55;125161;1091;64280;-81
2021/07/12 03:07:48;;;;;;;17.10;14.33;;;;;;;18.33;90.64;98825.93;125091;1093;64273;-81
2021/07/12 03:10:19;;;;;;;15.40;13.17;;;;;;;18.35;90.60;98835.56;125169;1090;64207;-81
2021/07/12 03:12:56;;;;;;;17.63;14.60;;;;;;;18.28;90.24;98834.48;125246;1090;64357;-81
2021/07/12 03:15:44;;;;;;;15.47;13.00;;;;;;;18.31;90.42;98844.12;125185;1090;64281;-81
2021/07/12 03:18:22;;;;;;;15.57;14.00;;;;;;;18.32;90.72;98833.15;125241;1092;64265;-81
2021/07/12 03:20:51;;;;;;;16.40;13.47;;;;;;;18.39;90.55;98836.92;125186;1093;64324;-81
2021/07/12 03:23:19;;;;;;;15.43;13.63;;;;;;;18.40;90.13;98835.07;125170;1090;64287;-81
2021/07/12 03:25:52;;;;;;;16.57;12.97;;;;;;;18.37;90.19;98835.39;125152;1091;64267;-81
2021/07/12 03:28:21;;;;;;;14.10;12.67;;;;;;;18.37;90.01;98830.83;125203;1090;64412;-80
2021/07/12 03:30:49;;;;;;;17.60;12.67;;;;;;;18.42;90.61;98830.38;125092;1093;64335;-81
2021/07/12 03:33:20;;;;;;;14.30;12.03;;;;;;;18.52;90.29;98824.89;125185;1091;64271;-81
2021/07/12 03:35:49;;;;;;;14.17;12.63;;;;;;;18.61;90.08;98829.33;125171;1091;64191;-76
2021/07/12 03:38:18;;;;;;;13.90;12.50;;;;;;;18.60;89.65;98831.19;125121;1093;64216;-76
2021/07/12 03:40:46;;;;;;;13.23;11.83;;;;;;;18.60;89.38;98839.28;125109;1091;64281;-76
2021/07/12 03:43:15;;;;;;;11.87;10.50;;;;;;;18.62;89.27;98841.83;125039;1089;64339;-76
2021/07/12 03:45:51;;;;;;;11.37;10.27;;;;;;;18.63;89.45;98838.95;125008;1090;64317;-76
2021/07/12 03:48:18;;;;;;;12.30;10.17;;;;;;;18.66;89.30;98845.89;125009;1093;64307;-76
2021/07/12 03:50:46;;;;;;;12.93;10.13;;;;;;;18.68;89.21;98845.75;125044;1090;64287;-76
2021/07/12 03:53:13;;;;;;;14.30;10.80;;;;;;;18.71;89.39;98845.43;125034;1091;64238;-76
2021/07/12 03:55:40;;;;;;;12.30;10.73;;;;;;;18.74;89.39;98842.41;125011;1091;64281;-76
2021/07/12 03:58:07;;;;;;;16.90;11.00;;;;;;;18.80;89.55;98836.39;124985;1090;64364;-76
2021/07/12 04:00:35;;;;;;;13.10;10.97;;;;;;;18.83;88.97;98841.50;125012;1090;64249;-76
2021/07/12 04:03:02;;;;;;;13.77;11.47;;;;;;;18.85;88.92;98843.04;125041;1090;64291;-76
2021/07/12 04:05:29;;;;;;;12.87;11.47;;;;;;;18.94;89.16;98840.38;125093;1090;64392;-76
2021/07/12 04:07:56;;;;;;;12.90;11.20;;;;;;;19.00;89.10;98832.47;125090;1093;64377;-76
2021/07/12 04:10:24;;;;;;;13.43;11.43;;;;;;;19.15;88.92;98834.59;125019;1091;64731;-76
2021/07/12 04:12:51;;;;;;;12.05;10.80;;;;;;;19.25;88.84;98832.62;124994;1091;64297;-76
2021/07/12 04:15:18;;;;;;;14.13;12.13;;;;;;;19.39;88.49;98836.55;125025;1090;64294;-76
2021/07/12 04:17:46;;;;;;;13.57;11.63;;;;;;;19.50;88.52;98828.98;125002;1093;64360;-76
2021/07/12 04:20:14;;;;;;;18.00;12.57;;;;;;;19.54;88.44;98824.11;125004;1090;64265;-76
2021/07/12 04:22:42;;;;;;;15.07;12.87;;;;;;;19.57;88.30;98825.64;125068;1091;64236;-76
2021/07/12 04:25:12;;;;;;;14.03;12.73;;;;;;;19.58;88.21;98827.32;125118;1093;64214;-76
2021/07/12 04:27:39;;;;;;;;;;;;;;;19.55;88.22;98831.20;125143;1092;64312;-76
2021/07/12 04:30:09;;;;;;;15.90;13.33;;;;;;;19.50;88.69;98837.09;125097;1090;64356;-76
2021/07/12 04:32:37;;;;;;;18.15;13.60;;;;;;;19.56;88.59;98827.47;125138;1092;64377;-76
2021/07/12 04:35:05;;;;;;;15.00;13.50;;;;;;;19.61;88.89;98835.94;125102;1090;64287;-76
2021/07/12 04:37:32;;;;;;;16.63;14.43;;;;;;;19.54;88.20;98829.52;125040;1091;64299;-76
2021/07/12 04:39:59;;;;;;;16.77;14.07;;;;;;;19.52;88.80;98823.42;125077;1091;64280;-76
2021/07/12 04:42:27;;;;;;;18.37;15.17;;;;;;;19.56;88.69;98832.03;124985;1093;64344;-76
2021/07/12 04:44:54;;;;;;;15.50;14.03;;;;;;;19.56;88.54;98835.58;125019;1090;64287;-76
2021/07/12 04:47:21;;;;;;;16.13;13.77;;;;;;;19.53;88.59;98828.64;124979;1093;64287;-76
2021/07/12 04:49:48;;;;;;;17.15;15.30;;;;;;;19.52;88.64;98829.67;125017;1090;64759;-76
2021/07/12 04:52:15;;;;;;;17.00;14.77;;;;;;;19.60;89.21;98831.55;124994;1091;64177;-76
2021/07/12 04:54:42;;;;;;;17.00;15.20;;;;;;;19.67;88.74;98837.20;125041;1093;64267;-76
2021/07/12 04:57:09;;;;;;;17.30;15.57;;;;;;;19.71;89.38;98841.25;125042;1091;64284;-77
2021/07/12 04:59:40;;;;;;;18.33;16.50;;;;;;;19.81;89.05;98836.55;125064;1093;64271;-76
2021/07/12 05:02:09;;;;;;;19.23;16.37;;;;;;;19.91;88.92;98836.41;125096;1091;64290;-76
2021/07/12 05:04:36;;;;;;;16.57;15.23;;;;;;;19.97;89.27;98843.00;124975;1090;64268;-76
2021/07/12 05:07:06;;;;;;;19.23;17.17;;;;;;;19.99;88.74;98838.28;124986;1091;64386;-76
2021/07/12 05:09:33;;;;;;;17.65;15.80;;;;;;;19.98;88.84;98847.39;125141;1090;64280;-76
2021/07/12 05:12:00;;;;;;;18.83;16.63;;;;;;;20.04;88.91;98841.33;125035;1093;64287;-76
2021/07/12 05:14:28;;;;;;;17.40;15.80;;;;;;;20.10;88.62;98833.38;125008;1090;64396;-76
2021/07/12 05:16:55;;;;;;;19.23;16.63;;;;;;;20.22;88.71;98838.45;125000;1090;64306;-76
2021/07/12 05:19:22;;;;;;;16.93;15.43;;;;;;;20.30;88.06;98836.62;125038;1093;64383;-76
2021/07/12 05:21:49;;;;;;;20.77;18.87;;;;;;;20.46;88.14;98843.02;125008;1093;64441;-76
2021/07/12 05:24:16;;;;;;;19.43;17.47;;;;;;;20.65;87.71;98847.30;124989;1093;64313;-76
2021/07/12 05:26:43;;;;;;;17.90;16.20;;;;;;;20.94;87.48;98827.78;125007;1092;64268;-76
2021/07/12 05:29:11;;;;;;;18.70;16.80;;;;;;;21.10;86.26;98821.47;125006;1093;64244;-76
2021/07/12 05:31:39;;;;;;;18.20;16.40;;;;;;;21.20;86.10;98822.11;125019;1090;64447;-76
2021/07/12 05:34:06;;;;;;;19.17;17.37;;;;;;;21.28;86.16;98815.82;125025;1093;64355;-76
2021/07/12 05:36:33;;;;;;;19.00;17.20;;;;;;;21.34;85.99;98818.66;125014;1092;64268;-76
2021/07/12 05:39:00;;;;;;;19.50;17.37;;;;;;;21.36;86.00;98821.20;125018;1093;64297;-76
2021/07/12 05:41:27;;;;;;;17.17;15.63;;;;;;;21.35;85.96;98820.33;125028;1093;64296;-77
2021/07/12 05:43:54;;;;;;;17.60;15.40;;;;;;;21.36;85.62;98818.50;124991;1091;64385;-77
2021/07/12 05:46:22;;;;;;;18.53;16.70;;;;;;;21.40;85.49;98807.13;124995;1093;64332;-77
2021/07/12 05:48:49;;;;;;;19.77;17.73;;;;;;;21.45;85.40;98796.59;125008;1093;64364;-77
2021/07/12 05:51:16;;;;;;;21.75;19.70;;;;;;;21.43;85.42;98797.80;125096;1093;64267;-76
2021/07/12 05:53:43;;;;;;;23.43;21.33;;;;;;;21.39;85.19;98793.77;125052;1093;64268;-76
2021/07/12 05:56:11;;;;;;;20.47;18.37;;;;;;;21.34;85.34;98793.42;125007;1093;64223;-76
2021/07/12 05:58:38;;;;;;;21.07;19.07;;;;;;;21.33;84.98;98799.84;125043;1092;64316;-76
2021/07/12 06:01:06;;;;;;;19.05;17.30;;;;;;;21.35;84.97;98814.07;125046;1093;64281;-77
2021/07/12 06:03:33;;;;;;;20.73;18.63;;;;;;;21.44;85.06;98810.35;125030;1093;64210;-77
2021/07/12 06:06:02;;;;;;;19.03;17.37;;;;;;;21.55;84.32;98811.82;125017;1093;64210;-77
2021/07/12 06:08:29;;;;;;;19.63;17.83;;;;;;;21.65;84.04;98810.58;124980;1093;64361;-77
2021/07/12 06:10:56;;;;;;;19.13;17.23;;;;;;;21.68;84.03;98807.50;125001;1093;64299;-77
2021/07/12 06:13:23;;;;;;;17.83;16.00;;;;;;;21.76;83.92;98811.20;125008;1093;64271;-77
2021/07/12 06:15:50;;;;;;;16.07;14.70;;;;;;;21.89;83.42;98809.58;125037;1093;64220;-77
2021/07/12 06:18:18;;;;;;;13.87;12.77;;;;;;;22.02;83.08;98819.00;125096;1093;64294;-77
2021/07/12 06:20:45;;;;;;;14.80;13.47;;;;;;;22.22;82.97;98813.95;125050;1091;64268;-77
2021/07/12 06:23:12;;;;;;;12.47;11.47;;;;;;;22.39;82.55;98817.39;125070;1093;64191;-77
2021/07/12 06:25:39;;;;;;;12.20;11.10;;;;;;;22.53;81.42;98817.41;125299;1093;64265;-77
2021/07/12 06:28:08;;;;;;;11.70;10.70;;;;;;;22.61;80.88;98821.92;125287;1092;64341;-76
2021/07/12 06:30:36;;;;;;;9.30;8.50;;;;;;;22.76;80.68;98819.25;125366;1093;64282;-76
2021/07/12 06:33:04;;;;;;;9.27;8.50;;;;;;;22.97;80.15;98821.27;125374;1093;64370;-77
2021/07/12 06:35:31;;;;;;;9.93;9.00;;;;;;;23.17;79.42;98816.10;125356;1092;64248;-77
2021/07/12 06:37:58;;;;;;;8.63;7.93;;;;;;;23.33;79.01;98810.48;125332;1093;64306;-76
2021/07/12 06:40:26;;;;;;;8.30;7.60;;;;;;;23.41;78.26;98809.55;125099;1093;64267;-76
2021/07/12 06:42:53;;;;;;;9.20;8.30;;;;;;;23.43;78.33;98815.61;125005;1093;64172;-76
2021/07/12 06:45:21;;;;;;;10.30;9.40;;;;;;;23.46;77.81;98817.98;125012;1093;64452;-76
2021/07/12 06:47:48;;;;;;;10.57;9.47;;;;;;;23.41;76.97;98817.70;125022;1093;64348;-76
2021/07/12 06:50:15;;;;;;;7.43;6.73;;;;;;;23.15;75.63;98819.02;124998;1093;64268;-77
2021/07/12 06:52:42;;;;;;;8.07;7.27;;;;;;;22.96;76.58;98831.30;125028;1093;64264;-76
2021/07/12 06:55:10;;;;;;;10.03;9.13;;;;;;;22.92;76.91;98838.09;124997;1092;64287;-77
2021/07/12 06:57:39;;;;;;;8.23;7.43;;;;;;;22.98;76.77;98845.53;124993;1092;64333;-77
2021/07/12 07:00:07;;;;;;;7.67;7.03;;;;;;;23.05;76.49;98840.20;124997;1093;64411;-77
2021/07/12 07:02:35;;;;;;;7.60;6.70;;;;;;;23.07;75.91;98840.87;125066;1091;64287;-77
2021/07/12 07:05:07;;;;;;;11.03;7.13;;;;;;;23.12;75.92;98841.16;124997;1090;64254;-77
2021/07/12 07:07:35;;;;;;;7.40;5.93;;;;;;;23.17;75.55;98846.88;125056;1092;64268;-76
2021/07/12 07:10:09;;;;;;;7.17;6.23;;;;;;;23.17;74.82;98833.28;125007;1090;64408;-76
2021/07/12 07:12:36;;;;;;;7.20;6.60;;;;;;;23.13;74.62;98837.39;125001;1090;64267;-76
2021/07/12 07:15:04;;;;;;;6.90;6.30;;;;;;;22.95;74.40;98845.87;124993;1093;64577;-77
2021/07/12 07:17:31;;;;;;;7.40;6.75;;;;;;;22.86;74.94;98851.59;125011;1090;64184;-77
2021/07/12 07:19:59;;;;;;;6.20;5.70;;;;;;;22.83;74.89;98852.81;125020;1090;64191;-77
2021/07/12 07:22:26;;;;;;;6.57;5.97;;;;;;;22.74;75.37;98865.61;125006;1093;64460;-76
2021/07/12 07:24:53;;;;;;;7.13;5.70;;;;;;;22.68;75.48;98860.92;125012;1091;64293;-76
2021/07/12 07:27:20;;;;;;;6.90;6.20;;;;;;;22.62;75.69;98861.66;125005;1091;64246;-77
2021/07/12 07:29:48;;;;;;;10.40;6.80;;;;;;;22.52;75.72;98866.50;125019;1091;64158;-76
2021/07/12 07:32:15;;;;;;;7.50;6.80;;;;;;;22.45;76.06;98873.67;125038;1091;64287;-76
2021/07/12 07:34:44;;;;;;;7.20;6.60;;;;;;;22.37;76.22;98869.16;124999;1093;64283;-76
2021/07/12 07:37:11;;;;;;;7.53;6.93;;;;;;;22.25;76.32;98879.60;125083;1090;64217;-76
2021/07/12 07:39:39;;;;;;;7.80;6.80;;;;;;;22.12;76.61;98882.88;125036;1091;64265;-76
2021/07/12 07:42:07;;;;;;;7.25;6.65;;;;;;;22.00;76.34;98862.59;125051;1090;64273;-77
2021/07/12 07:44:34;;;;;;;7.10;6.40;;;;;;;21.90;76.83;98883.67;125049;1090;64265;-76
2021/07/12 07:47:01;;;;;;;7.03;6.37;;;;;;;21.85;77.11;98878.80;124998;1093;64447;-76
2021/07/12 07:49:31;;;;;;;7.93;7.10;;;;;;;21.79;77.16;98881.37;125031;1093;64441;-77
2021/07/12 07:51:59;;;;;;;7.95;6.85;;;;;;;21.75;77.69;98880.02;125030;1090;64242;-77
2021/07/12 07:54:26;;;;;;;7.50;6.80;;;;;;;21.69;77.77;98879.70;125093;1091;64216;-76
2021/07/12 07:56:54;;;;;;;7.73;6.60;;;;;;;21.62;77.75;98878.73;125049;1092;64268;-76
2021/07/12 07:59:21;;;;;;;8.43;7.20;;;;;;;21.55;77.85;98876.91;125006;1090;64255;-77
2021/07/12 08:01:48;;;;;;;8.60;7.80;;;;;;;21.44;78.26;98868.13;125048;1090;64360;-77
2021/07/12 08:04:16;;;;;;;8.67;7.80;;;;;;;21.34;78.59;98861.19;125052;1090;64288;-76
2021/07/12 08:06:43;;;;;;;7.97;7.27;;;;;;;21.19;78.95;98859.19;125025;1089;64740;-76
2021/07/12 08:09:10;;;;;;;7.87;7.27;;;;;;;21.04;79.28;98850.95;125045;1091;64214;-75
2021/07/12 08:11:37;;;;;;;8.85;7.00;;;;;;;20.95;79.76;98848.42;125220;1090;64274;-78
2021/07/12 08:14:04;;;;;;;10.73;7.40;;;;;;;20.91;80.53;98849.80;125025;1090;64339;-80
2021/07/12 08:16:31;;;;;;;6.83;6.30;;;;;;;20.78;80.44;98832.20;125028;1090;64265;-80
2021/07/12 08:18:59;;;;;;;8.30;7.13;;;;;;;20.68;80.52;98830.70;125166;1090;64207;-81
2021/07/12 08:21:26;;;;;;;7.50;6.70;;;;;;;20.57;81.01;98838.16;125209;1089;64268;-81
2021/07/12 08:23:53;;;;;;;7.57;6.93;;;;;;;20.43;81.73;98840.66;125096;1090;64152;-81
2021/07/12 08:26:20;;;;;;;8.93;7.77;;;;;;;20.38;82.44;98849.31;125298;1090;64425;-79
2021/07/12 08:28:48;;;;;;;9.13;7.27;;;;;;;20.34;82.99;98847.94;125046;1090;64245;-81
2021/07/12 08:31:16;;;;;;;10.67;8.47;;;;;;;20.28;82.88;98860.29;125163;1090;64386;-78
2021/07/12 08:33:44;;;;;;;8.07;7.17;;;;;;;20.30;83.36;98860.98;125017;1090;64262;-78
2021/07/12 08:36:13;;;;;;;7.60;6.90;;;;;;;20.32;83.49;98860.79;125049;1088;64415;-78
2021/07/12 08:38:40;;;;;;;9.45;7.85;;;;;;;20.29;83.79;98872.80;124973;1090;64407;-77
2021/07/12 08:41:08;;;;;;;6.65;5.95;;;;;;;20.30;83.68;98879.92;125060;1090;64765;-78
2021/07/12 08:43:35;;;;;;;8.30;6.80;;;;;;;20.28;83.92;98878.39;124970;1090;64214;-81
2021/07/12 08:46:02;;;;;;;7.73;6.97;;;;;;;20.26;84.11;98885.83;125160;1090;64279;-82
2021/07/12 08:48:30;;;;;;;7.97;6.40;;;;;;;20.26;84.12;98885.83;125134;1090;64425;-81
2021/07/12 08:50:57;;;;;;;7.37;6.70;;;;;;;20.34;84.46;98905.62;125148;1090;64311;-83
2021/07/12 08:53:24;;;;;;;7.30;6.60;;;;;;;20.40;84.05;98909.52;125204;1090;64296;-83
2021/07/12 08:55:52;;;;;;;7.33;6.40;;;;;;;20.52;84.31;98904.63;125165;1090;64264;-88
2021/07/12 08:58:23;;;;;;;9.77;6.70;;;;;;;20.65;84.10;98906.88;125268;1090;64287;-85
2021/07/12 09:01:03;;;;;;;9.23;7.07;;;;;;;20.71;84.06;98907.02;125083;1090;64190;-83
2021/07/12 09:03:33;;;;;;;7.90;7.17;;;;;;;20.80;84.23;98899.73;125117;1090;64214;-82
2021/07/12 09:06:12;;;;;;;9.37;8.07;;;;;;;20.85;83.85;98901.94;125112;1090;64261;-81
2021/07/12 09:08:47;;;;;;;7.90;7.10;;;;;;;20.87;83.22;98895.33;125197;1090;64261;-78
2021/07/12 09:11:30;;;;;;;7.00;6.40;;;;;;;20.87;83.47;98892.63;125244;1090;64191;-79
2021/07/12 09:14:18;;;;;;;7.25;6.50;;;;;;;20.84;83.51;98906.52;125031;1090;64421;-80
2021/07/12 09:16:55;;;;;;;7.40;6.20;;;;;;;20.85;83.93;98913.61;125009;1090;64338;-80
2021/07/12 09:19:28;;;;;;;7.93;7.13;;;;;;;20.89;83.61;98906.01;125161;1090;64277;-82
2021/07/12 09:22:13;;;;;;;7.60;6.80;;;;;;;20.95;83.90;98914.28;125247;1090;64217;-80
2021/07/12 09:24:55;;;;;;;7.60;6.83;;;;;;;21.03;83.41;98914.27;125187;1088;64383;-83
2021/07/12 09:27:26;;;;;;;8.17;7.37;;;;;;;21.15;83.37;98903.94;125175;1090;64361;-82
2021/07/12 09:29:59;;;;;;;8.57;7.87;;;;;;;21.24;82.34;98904.75;125259;1090;64179;-86
2021/07/12 09:32:30;;;;;;;9.30;8.07;;;;;;;21.39;81.90;98903.05;125187;1090;64207;-83
2021/07/12 09:35:05;;;;;;;9.20;7.37;;;;;;;21.53;81.13;98909.61;125088;1090;64284;-82
2021/07/12 09:37:35;;;;;;;8.30;7.50;;;;;;;21.68;80.89;98907.86;125138;1090;64287;-83
2021/07/12 09:40:07;;;;;;;8.75;7.70;;;;;;;21.75;80.52;98901.72;125269;1090;64345;-81
2021/07/12 09:42:35;;;;;;;8.63;7.93;;;;;;;21.77;80.41;98900.52;125226;1090;64184;-80
2021/07/12 09:45:08;;;;;;;7.97;7.27;;;;;;;21.91;80.30;98886.22;125183;1090;64235;-82
2021/07/12 09:47:38;;;;;;;7.67;7.07;;;;;;;21.93;79.50;98883.31;125195;1090;64268;-82
2021/07/12 09:50:12;;;;;;;7.57;6.87;;;;;;;21.97;79.65;98876.52;125098;1090;64677;-76
2021/07/12 09:52:47;;;;;;;7.50;6.80;;;;;;;22.03;79.37;98872.23;125025;1090;64330;-76
2021/07/12 09:55:23;;;;;;;6.23;5.63;;;;;;;22.11;78.41;98878.45;125042;1090;64181;-74
2021/07/12 09:58:09;;;;;;;8.20;5.00;;;;;;;22.13;77.93;98879.13;125038;1090;64273;-75
2021/07/12 10:00:57;;;;;;;6.17;5.53;;;;;;;22.17;77.37;98879.63;125045;1090;64268;-75
2021/07/12 10:03:24;;;;;;;7.50;6.07;;;;;;;22.36;77.56;98881.05;125021;1090;64281;-75
2021/07/12 10:05:53;;;;;;;5.87;5.37;;;;;;;22.61;76.65;98878.97;124985;1090;64259;-75
2021/07/12 10:08:21;;;;;;;4.43;4.03;;;;;;;22.87;75.66;98875.84;125065;1090;64191;-75
2021/07/12 10:10:48;;;;;;;3.73;3.50;;;;;;;23.03;74.95;98872.16;125041;1090;64209;-75
2021/07/12 10:13:16;;;;;;;4.83;4.43;;;;;;;23.03;73.79;98879.47;125054;1090;64239;-75
2021/07/12 10:15:44;;;;;;;6.13;5.60;;;;;;;23.03;74.31;98880.31;125039;1089;64281;-75
2021/07/12 10:18:11;;;;;;;8.20;7.40;;;;;;;23.05;73.82;98872.83;124999;1090;64348;-75
2021/07/12 10:20:39;;;;;;;7.40;6.80;;;;;;;23.10;73.80;98878.55;125024;1090;64278;-75
2021/07/12 10:23:08;;;;;;;8.93;8.03;;;;;;;23.03;73.56;98874.88;125032;1090;64291;-75
2021/07/12 10:25:46;;;;;;;6.20;5.17;;;;;;;22.92;73.22;98873.42;125082;1090;64241;-75
2021/07/12 10:28:13;;;;;;;5.97;5.20;;;;;;;22.73;73.97;98876.67;125109;1090;64309;-77
2021/07/12 10:30:45;;;;;;;4.40;4.00;;;;;;;22.67;73.39;98872.83;124989;1090;64396;-78
2021/07/12 10:33:15;;;;;;;5.53;4.93;;;;;;;22.59;73.67;98870.16;125030;1090;64303;-77
2021/07/12 10:35:47;;;;;;;5.43;5.00;;;;;;;22.52;73.30;98858.35;125072;1090;64386;-77
2021/07/12 10:38:18;;;;;;;6.53;5.70;;;;;;;22.46;73.88;98856.34;125070;1090;64351;-77
2021/07/12 10:40:51;;;;;;;6.70;6.00;;;;;;;22.37;73.50;98863.72;125059;1089;64268;-77
2021/07/12 10:43:45;;;;;;;7.87;6.47;;;;;;;22.34;73.70;98870.36;125000;1090;64361;-78
2021/07/12 10:46:28;;;;;;;6.70;6.00;;;;;;;22.38;73.49;98870.86;125003;1090;64364;-78
2021/07/12 10:49:01;;;;;;;8.77;6.67;;;;;;;22.39;73.63;98858.96;125016;1090;64347;-78
2021/07/12 10:51:37;;;;;;;7.10;6.50;;;;;;;22.43;73.20;98859.42;125033;1090;64255;-79
2021/07/12 10:54:07;;;;;;;7.17;6.57;;;;;;;22.48;74.07;98857.02;125053;1090;64351;-79
2021/07/12 10:56:46;;;;;;;7.43;6.73;;;;;;;22.56;74.55;98855.09;125027;1090;64389;-79
2021/07/12 10:59:33;;;;;;;6.93;6.30;;;;;;;22.68;74.65;98855.48;125020;1090;64859;-79
2021/07/12 11:02:03;;;;;;;5.47;4.97;;;;;;;22.77;74.08;98843.50;125035;1090;64284;-78
2021/07/12 11:04:37;;;;;;;;;;;;;;;22.76;72.75;98825.52;125078;1090;64396;-78
2021/07/12 11:07:41;;;;;;;4.80;4.27;;;;;;;22.67;72.96;98831.20;124965;1090;64268;-78
2021/07/12 11:10:26;;;;;;;5.40;5.00;;;;;;;22.71;72.38;98825.23;124974;1090;64284;-78
2021/07/12 11:13:01;;;;;;;5.33;4.93;;;;;;;22.79;72.85;98824.30;125077;1090;64265;-77
2021/07/12 11:15:35;;;;;;;5.40;4.97;;;;;;;22.91;72.32;98825.55;124970;1088;64264;-79
2021/07/12 11:18:07;;;;;;;4.15;3.75;;;;;;;23.03;71.22;98816.95;125077;1090;64396;-78
2021/07/12 11:20:52;;;;;;;4.75;3.90;;;;;;;23.17;71.46;98825.13;125020;1090;64281;-78
2021/07/12 11:23:44;;;;;;;4.40;3.93;;;;;;;23.28;71.14;98822.97;125113;1090;64281;-77
2021/07/12 11:26:20;;;;;;;3.93;3.63;;;;;;;23.34;71.07;98817.60;125089;1090;64328;-77
2021/07/12 11:28:55;;;;;;;4.53;4.20;;;;;;;23.43;71.33;98819.20;125051;1088;64271;-78
2021/07/12 11:31:47;;;;;;;4.40;3.93;;;;;;;23.45;71.17;98819.00;125064;1090;64249;-77
2021/07/12 11:34:19;;;;;;;4.87;4.40;;;;;;;23.49;71.06;98825.75;125003;1088;64267;-77